Time;durP1;ratioP1;P1;durP2;ratioP2;P2;SDS_P1;SDS_P2;PMS_P1;PMS_P2;Temp;Humidity;BMP_temperature;BMP_pressure;BME280_temperature;BME280_humidity;BME280_pressure;Samples;Min_cycle;Max_cycle;Signal;HPM_P1;HPM_P2
2022/04/21 00:00:56;;;;;;;2.17;0.90;;;12.00;51.50;;;;;;5009329;28;20101;-86
2022/04/21 00:03:26;;;;;;;2.45;0.80;;;12.00;51.70;;;;;;5006793;28;20053;-86
2022/04/21 00:05:53;;;;;;;2.38;1.00;;;12.00;51.70;;;;;;4998211;28;20046;-86
2022/04/21 00:08:21;;;;;;;3.05;1.17;;;12.00;52.50;;;;;;4995299;28;20061;-86
2022/04/21 00:10:48;;;;;;;2.80;1.30;;;11.90;52.00;;;;;;5015836;28;20041;-86
2022/04/21 00:13:15;;;;;;;2.33;1.17;;;11.90;52.00;;;;;;4999966;28;20096;-86
2022/04/21 00:15:42;;;;;;;1.98;0.90;;;11.90;52.20;;;;;;5011918;28;20046;-86
2022/04/21 00:18:09;;;;;;;1.65;0.70;;;11.90;52.30;;;;;;4980028;28;20053;-86
2022/04/21 00:20:37;;;;;;;2.15;0.85;;;11.80;52.40;;;;;;4994926;28;20108;-86
2022/04/21 00:26:00;;;;;;;1.98;0.65;;;11.80;52.70;;;;;;5007347;28;20069;-86
2022/04/21 00:28:28;;;;;;;2.58;0.60;;;11.80;52.80;;;;;;5028567;28;20046;-86
2022/04/21 00:30:56;;;;;;;1.55;0.70;;;11.70;52.90;;;;;;4999408;28;20132;-86
2022/04/21 00:33:23;;;;;;;1.63;0.70;;;11.70;53.00;;;;;;4992409;28;20042;-86
2022/04/21 00:35:51;;;;;;;2.28;0.90;;;11.60;53.10;;;;;;4975280;28;20328;-86
2022/04/21 00:38:19;;;;;;;2.50;0.90;;;11.60;53.30;;;;;;5008802;28;20038;-87
2022/04/21 00:40:49;;;;;;;1.30;0.60;;;11.60;53.40;;;;;;4995919;28;20069;-86
2022/04/21 00:43:16;;;;;;;2.10;0.73;;;11.60;53.50;;;;;;4988638;28;20029;-85
2022/04/21 00:45:43;;;;;;;2.22;0.70;;;11.60;53.60;;;;;;4996458;28;20050;-86
2022/04/21 00:48:12;;;;;;;1.63;0.68;;;11.50;53.70;;;;;;4992047;28;20042;-86
2022/04/21 00:50:39;;;;;;;2.17;0.75;;;11.50;53.90;;;;;;4991034;28;20057;-86
2022/04/21 00:53:07;;;;;;;3.30;0.90;;;11.50;54.10;;;;;;5011612;28;20036;-86
2022/04/21 00:55:37;;;;;;;1.77;0.88;;;11.50;54.20;;;;;;5011775;28;20042;-86
2022/04/21 00:58:05;;;;;;;2.13;0.82;;;11.50;54.30;;;;;;5012223;28;20040;-86
2022/04/21 01:00:32;;;;;;;2.22;1.05;;;11.50;54.40;;;;;;4992669;28;20053;-86
2022/04/21 01:03:01;;;;;;;3.25;1.10;;;11.50;54.60;;;;;;5006678;28;20045;-86
2022/04/21 01:05:30;;;;;;;2.97;1.30;;;11.40;54.80;;;;;;5010969;28;20045;-86
2022/04/21 01:08:08;;;;;;;4.20;1.52;;;11.40;55.00;;;;;;5011975;28;20041;-86
2022/04/21 01:10:37;;;;;;;3.47;1.30;;;11.40;55.20;;;;;;5011223;28;20395;-86
2022/04/21 01:13:06;;;;;;;3.88;1.38;;;11.30;55.30;;;;;;5011688;28;20045;-86
2022/04/21 01:15:38;;;;;;;2.78;1.17;;;11.30;55.50;;;;;;4998723;28;20410;-86
2022/04/21 01:18:09;;;;;;;4.40;0.90;;;11.30;55.60;;;;;;4992382;28;20423;-86
2022/04/21 01:20:37;;;;;;;2.20;0.98;;;11.30;55.60;;;;;;4985755;28;20052;-86
2022/04/21 01:23:04;;;;;;;2.47;1.02;;;11.20;55.80;;;;;;4995207;28;20092;-86
2022/04/21 01:25:39;;;;;;;2.13;1.27;;;11.20;56.70;;;;;;5011362;28;20034;-86
2022/04/21 01:28:08;;;;;;;2.70;1.27;;;11.20;56.30;;;;;;4995644;28;20112;-86
2022/04/21 01:30:35;;;;;;;3.17;1.17;;;11.20;56.50;;;;;;4992353;28;20137;-86
2022/04/21 01:33:05;;;;;;;3.15;1.00;;;11.10;56.60;;;;;;5002193;28;20049;-86
2022/04/21 01:35:33;;;;;;;1.67;0.88;;;11.10;56.70;;;;;;4999088;28;20041;-86
2022/04/21 01:43:31;;;;;;;2.28;0.85;;;11.10;56.80;;;;;;5014804;28;20050;-86
2022/04/21 01:45:58;;;;;;;3.10;1.27;;;11.10;56.90;;;;;;5014847;28;20034;-86
2022/04/21 01:48:25;;;;;;;2.58;0.77;;;11.10;57.20;;;;;;4998852;28;20434;-86
2022/04/21 01:50:52;;;;;;;1.92;0.80;;;11.10;57.20;;;;;;4997351;28;20042;-85
2022/04/21 01:53:19;;;;;;;3.63;0.90;;;11.10;57.30;;;;;;5006462;28;20052;-86
2022/04/21 01:55:46;;;;;;;2.03;0.63;;;11.10;57.40;;;;;;4977586;28;20483;-86
2022/04/21 01:58:13;;;;;;;1.58;0.98;;;11.10;57.50;;;;;;4982698;28;20042;-86
2022/04/21 02:00:41;;;;;;;3.85;1.67;;;11.10;57.70;;;;;;5014858;28;20050;-86
2022/04/21 02:03:08;;;;;;;2.45;1.20;;;11.10;58.00;;;;;;5010721;28;20057;-86
2022/04/21 02:05:35;;;;;;;2.97;0.93;;;11.00;58.00;;;;;;4984016;28;20052;-86
2022/04/21 02:08:03;;;;;;;1.95;1.02;;;11.00;58.00;;;;;;4996944;28;20045;-86
2022/04/21 02:10:31;;;;;;;1.77;1.00;;;11.00;58.30;;;;;;5005451;28;20054;-86
2022/04/21 02:12:59;;;;;;;2.67;1.10;;;11.00;58.40;;;;;;5013278;28;20077;-86
2022/04/21 02:15:26;;;;;;;2.30;1.02;;;10.90;58.40;;;;;;5013984;28;20042;-86
2022/04/21 02:17:54;;;;;;;1.63;0.80;;;10.90;58.50;;;;;;5014664;28;20049;-86
2022/04/21 02:20:21;;;;;;;2.50;0.70;;;10.80;58.60;;;;;;4984569;28;20465;-86
2022/04/21 02:22:50;;;;;;;2.20;0.93;;;10.80;58.70;;;;;;5010802;28;20050;-86
2022/04/21 02:25:18;;;;;;;2.22;0.98;;;10.80;58.90;;;;;;5013026;28;20481;-86
2022/04/21 02:27:48;;;;;;;1.70;0.75;;;10.70;58.90;;;;;;5009784;28;20380;-86
2022/04/21 02:30:18;;;;;;;1.77;0.65;;;10.70;59.00;;;;;;5006139;28;20503;-85
2022/04/21 02:32:47;;;;;;;2.03;0.85;;;10.70;59.20;;;;;;4998219;28;20037;-86
2022/04/21 02:35:16;;;;;;;2.55;0.98;;;10.70;59.20;;;;;;5014641;28;20046;-86
2022/04/21 02:37:45;;;;;;;2.90;0.80;;;10.60;59.30;;;;;;4997308;28;20058;-86
2022/04/21 02:40:13;;;;;;;1.35;0.63;;;10.60;59.30;;;;;;4997548;28;20104;-86
2022/04/21 02:42:40;;;;;;;1.73;0.70;;;10.60;59.40;;;;;;5010729;28;20069;-86
2022/04/21 02:45:09;;;;;;;1.60;0.73;;;10.60;59.50;;;;;;5014427;28;20056;-86
2022/04/21 02:47:37;;;;;;;2.10;0.80;;;10.60;59.60;;;;;;5014044;28;20049;-86
2022/04/21 02:50:05;;;;;;;2.03;0.80;;;10.50;59.60;;;;;;5010179;28;20049;-86
2022/04/21 02:52:40;;;;;;;3.20;0.90;;;10.50;59.70;;;;;;5004968;28;20118;-85
2022/04/21 02:57:56;;;;;;;1.65;0.77;;;10.50;59.80;;;;;;5013605;28;20073;-86
2022/04/21 03:00:23;;;;;;;1.63;0.80;;;10.40;59.80;;;;;;4997106;28;20129;-86
2022/04/21 03:02:50;;;;;;;2.03;0.93;;;10.40;59.80;;;;;;4997463;28;20624;-86
2022/04/21 03:05:18;;;;;;;2.72;0.80;;;10.40;59.90;;;;;;4997122;28;20490;-85
2022/04/21 03:07:45;;;;;;;1.58;0.70;;;10.40;60.00;;;;;;5013363;28;20058;-86
2022/04/21 03:10:12;;;;;;;1.83;0.70;;;10.40;60.00;;;;;;4995929;28;20116;-85
2022/04/21 03:12:39;;;;;;;1.63;0.77;;;10.40;60.20;;;;;;5013715;28;20041;-86
2022/04/21 03:15:10;;;;;;;1.77;0.60;;;10.30;60.20;;;;;;4997077;28;20038;-86
2022/04/21 03:17:37;;;;;;;1.40;0.70;;;10.40;60.30;;;;;;4981514;28;20045;-86
2022/04/21 03:20:05;;;;;;;1.08;0.52;;;10.30;60.30;;;;;;5013207;28;20113;-86
2022/04/21 03:25:18;;;;;;;1.40;0.65;;;10.30;60.40;;;;;;5013758;28;20116;-86
2022/04/21 03:27:48;;;;;;;2.15;0.77;;;10.30;60.40;;;;;;5013010;28;20045;-86
2022/04/21 03:30:15;;;;;;;1.88;0.68;;;10.30;60.50;;;;;;5012972;28;20057;-86
2022/04/21 03:32:43;;;;;;;1.10;0.47;;;10.30;60.50;;;;;;4980508;28;20057;-86
2022/04/21 03:35:11;;;;;;;1.33;0.50;;;10.30;60.30;;;;;;5012996;28;20044;-86
2022/04/21 03:37:38;;;;;;;1.30;0.43;;;10.30;60.30;;;;;;5013282;28;20041;-85
2022/04/21 03:40:06;;;;;;;2.58;0.68;;;10.30;60.40;;;;;;5013232;28;20046;-86
2022/04/21 03:42:33;;;;;;;1.83;0.95;;;10.30;60.40;;;;;;5012578;28;20054;-85
2022/04/21 03:45:19;;;;;;;2.45;0.63;;;10.30;60.30;;;;;;4996744;28;20053;-86
2022/04/21 03:51:19;;;;;;;1.30;0.60;;;10.30;60.50;;;;;;5009119;28;20141;-86
2022/04/21 03:54:34;;;;;;;2.10;0.70;;;10.20;60.50;;;;;;5007452;28;20410;-85
2022/04/21 03:57:01;;;;;;;1.77;0.70;;;10.10;60.70;;;;;;5012749;28;20042;-86
2022/04/21 03:59:28;;;;;;;3.80;1.00;;;10.10;60.80;;;;;;4996306;28;20494;-85
2022/04/21 04:02:02;;;;;;;3.05;0.88;;;10.10;60.90;;;;;;4980422;28;20052;-86
2022/04/21 04:04:31;;;;;;;2.17;0.85;;;10.10;61.00;;;;;;5012375;28;20077;-86
2022/04/21 04:12:32;;;;;;;1.55;0.80;;;9.90;61.30;;;;;;4999314;28;20402;-86
2022/04/21 04:15:00;;;;;;;1.92;0.98;;;9.90;61.40;;;;;;4979765;28;20038;-86
2022/04/21 04:17:31;;;;;;;2.28;0.93;;;9.90;61.50;;;;;;4979309;28;20041;-86
2022/04/21 04:19:59;;;;;;;2.33;0.80;;;9.80;61.60;;;;;;4996084;28;20457;-86
2022/04/21 04:22:26;;;;;;;2.13;1.10;;;9.80;61.80;;;;;;4999060;28;20136;-86
2022/04/21 04:24:55;;;;;;;1.50;0.70;;;9.70;61.90;;;;;;4970216;28;20045;-86
2022/04/21 04:27:23;;;;;;;2.17;0.95;;;9.70;62.00;;;;;;4995578;28;20065;-85
2022/04/21 04:29:50;;;;;;;1.80;0.80;;;9.70;62.10;;;;;;4995955;28;20056;-86
2022/04/21 04:32:17;;;;;;;1.73;0.80;;;9.70;62.10;;;;;;4982199;28;20105;-85
2022/04/21 04:34:44;;;;;;;2.75;1.20;;;9.70;62.30;;;;;;4952869;28;20041;-86
2022/04/21 04:37:12;;;;;;;1.85;0.80;;;9.70;62.40;;;;;;4986882;28;20482;-85
2022/04/21 04:39:39;;;;;;;2.20;0.90;;;9.60;62.40;;;;;;5009589;28;20053;-86
2022/04/21 04:42:20;;;;;;;2.47;0.95;;;9.60;62.60;;;;;;4986459;28;20106;-85
2022/04/21 04:46:34;;;;;;;3.67;0.98;;;9.60;62.70;;;;;;4968821;28;20050;-86
2022/04/21 04:47:39;;;;;;;3.70;1.30;;;9.60;62.90;;;;;;4995628;28;20064;-85
2022/04/21 04:50:07;;;;;;;2.15;0.90;;;9.50;63.00;;;;;;4994638;28;20054;-86
2022/04/21 04:52:34;;;;;;;1.60;0.80;;;9.50;63.00;;;;;;5001382;28;20060;-86
2022/04/21 04:55:02;;;;;;;3.03;1.00;;;9.50;63.00;;;;;;4991897;28;20430;-86
2022/04/21 04:57:33;;;;;;;1.85;0.90;;;9.50;63.20;;;;;;4971051;28;20133;-86
2022/04/21 05:00:02;;;;;;;1.85;0.70;;;9.50;63.20;;;;;;5009738;28;20038;-86
2022/04/21 05:02:29;;;;;;;2.20;0.90;;;9.50;63.20;;;;;;5004437;28;20050;-86
2022/04/21 05:04:57;;;;;;;2.58;0.90;;;9.50;63.30;;;;;;4995406;28;21848;-86
2022/04/21 05:07:24;;;;;;;2.08;0.95;;;9.50;63.30;;;;;;4991131;28;20046;-86
2022/04/21 05:09:51;;;;;;;2.53;1.15;;;9.50;63.40;;;;;;5013384;28;20050;-86
2022/04/21 05:12:18;;;;;;;1.48;0.77;;;9.50;63.30;;;;;;4983476;28;20129;-85
2022/04/21 05:14:46;;;;;;;2.15;0.93;;;9.60;63.40;;;;;;4999199;28;20050;-86
2022/04/21 05:17:13;;;;;;;2.55;1.02;;;9.60;63.40;;;;;;5015599;28;20052;-86
2022/04/21 05:19:43;;;;;;;3.47;1.20;;;9.60;63.40;;;;;;4999605;28;20045;-85
2022/04/21 05:22:13;;;;;;;3.38;1.48;;;9.60;63.40;;;;;;4999048;28;20418;-86
2022/04/21 05:24:44;;;;;;;2.05;1.00;;;9.60;63.50;;;;;;4999404;28;20050;-86
2022/04/21 05:27:14;;;;;;;2.97;0.90;;;9.60;63.40;;;;;;5015281;28;20494;-86
2022/04/21 05:32:30;;;;;;;1.65;0.77;;;9.70;63.40;;;;;;4999684;28;20052;-86
2022/04/21 05:34:58;;;;;;;2.08;0.88;;;9.70;63.30;;;;;;5015264;28;20046;-87
2022/04/21 05:37:25;;;;;;;1.58;0.63;;;9.80;63.30;;;;;;4996529;28;20046;-86
2022/04/21 05:39:53;;;;;;;1.88;0.88;;;9.80;63.30;;;;;;5015189;28;20580;-86
2022/04/21 05:42:23;;;;;;;1.42;0.70;;;9.90;63.30;;;;;;4999073;28;20046;-86
2022/04/21 05:44:54;;;;;;;2.42;0.95;;;9.90;63.20;;;;;;4979398;28;20054;-86
2022/04/21 05:47:22;;;;;;;1.38;0.68;;;10.00;63.20;;;;;;4990895;28;20053;-86
2022/04/21 05:49:50;;;;;;;1.75;0.80;;;10.00;63.10;;;;;;5014937;28;20054;-86
2022/04/21 05:52:23;;;;;;;1.67;0.80;;;10.10;63.10;;;;;;5012714;28;20050;-86
2022/04/21 05:54:50;;;;;;;2.47;0.70;;;10.20;63.10;;;;;;5014681;28;20468;-85
2022/04/21 05:57:17;;;;;;;1.25;0.57;;;10.20;63.00;;;;;;5012614;28;20133;-86
2022/04/21 05:59:45;;;;;;;1.67;0.70;;;10.30;62.90;;;;;;5013363;28;20038;-86
2022/04/21 06:02:12;;;;;;;1.80;0.57;;;10.40;62.90;;;;;;4982363;28;20057;-86
2022/04/21 06:04:39;;;;;;;3.25;0.95;;;10.40;62.70;;;;;;5014559;28;20081;-86
2022/04/21 06:07:07;;;;;;;1.92;1.10;;;10.50;62.80;;;;;;4998690;28;20061;-86
2022/04/21 06:09:34;;;;;;;1.42;0.60;;;10.50;62.70;;;;;;4998485;28;20457;-86
2022/04/21 06:12:03;;;;;;;1.85;0.60;;;10.60;62.60;;;;;;5007937;28;20105;-86
2022/04/21 06:14:30;;;;;;;2.10;0.90;;;10.70;62.50;;;;;;4998461;28;20343;-85
2022/04/21 06:16:59;;;;;;;1.48;0.52;;;10.80;62.40;;;;;;4986418;28;20038;-85
2022/04/21 06:19:27;;;;;;;2.35;0.80;;;10.90;62.40;;;;;;5005534;28;20069;-86
2022/04/21 06:21:54;;;;;;;2.15;0.60;;;10.90;62.20;;;;;;4997972;28;20065;-86
2022/04/21 06:24:21;;;;;;;1.63;0.77;;;11.00;62.10;;;;;;4998251;28;20041;-87
2022/04/21 06:26:48;;;;;;;2.70;0.90;;;11.10;62.00;;;;;;5014651;28;20125;-86
2022/04/21 06:29:15;;;;;;;2.85;1.25;;;11.20;62.00;;;;;;5007703;28;20099;-86
2022/04/21 06:31:42;;;;;;;1.88;0.98;;;11.20;61.90;;;;;;5024538;28;20038;-86
2022/04/21 06:34:09;;;;;;;1.95;1.10;;;11.20;61.80;;;;;;5013873;28;20042;-86
2022/04/21 06:36:36;;;;;;;1.77;0.70;;;11.20;61.90;;;;;;5005487;28;20042;-87
2022/04/21 06:39:03;;;;;;;2.40;0.98;;;11.20;61.80;;;;;;5012607;28;20050;-86
2022/04/21 06:41:30;;;;;;;2.45;0.95;;;11.30;61.90;;;;;;4997739;28;20037;-85
2022/04/21 06:49:28;;;;;;;2.30;1.00;;;11.50;61.70;;;;;;4997994;28;20054;-86
2022/04/21 06:51:56;;;;;;;2.90;1.50;;;11.50;61.50;;;;;;5010198;28;20042;-87
2022/04/21 06:54:26;;;;;;;3.53;1.15;;;11.60;61.50;;;;;;5002913;28;20049;-87
2022/04/21 06:56:53;;;;;;;1.55;0.60;;;11.70;62.10;;;;;;4982316;28;20058;-85
2022/04/21 06:59:20;;;;;;;2.42;1.02;;;11.70;61.30;;;;;;5012377;28;20092;-86
2022/04/21 07:01:47;;;;;;;1.90;0.80;;;11.90;61.30;;;;;;5013879;28;20076;-87
2022/04/21 07:04:15;;;;;;;2.50;1.08;;;11.90;61.10;;;;;;5013596;28;20056;-87
2022/04/21 07:06:42;;;;;;;2.22;0.88;;;12.10;61.00;;;;;;4996265;28;20072;-86
2022/04/21 07:09:09;;;;;;;1.90;0.90;;;12.10;60.70;;;;;;5019340;28;20069;-87
2022/04/21 07:11:38;;;;;;;1.75;0.80;;;12.20;60.30;;;;;;5002086;28;20046;-87
2022/04/21 07:14:05;;;;;;;1.80;0.75;;;12.20;60.10;;;;;;5012358;28;20046;-86
2022/04/21 07:16:33;;;;;;;2.08;0.93;;;12.20;59.90;;;;;;4988779;28;20440;-87
2022/04/21 07:19:00;;;;;;;3.05;1.20;;;12.30;59.80;;;;;;4993771;28;20108;-87
2022/04/21 07:21:27;;;;;;;1.90;0.70;;;12.30;59.50;;;;;;5024748;28;20077;-86
2022/04/21 07:23:54;;;;;;;2.13;0.73;;;12.40;59.30;;;;;;5005691;28;20663;-87
2022/04/21 07:26:21;;;;;;;2.03;0.68;;;12.50;59.10;;;;;;4996300;28;20050;-88
2022/04/21 07:28:55;;;;;;;2.08;0.70;;;12.50;58.70;;;;;;5012384;28;20046;-86
2022/04/21 07:31:22;;;;;;;2.28;1.10;;;12.60;58.50;;;;;;4983126;28;20050;-87
2022/04/21 07:33:49;;;;;;;1.50;0.75;;;12.70;58.40;;;;;;5005380;28;20104;-86
2022/04/21 07:36:18;;;;;;;1.65;0.60;;;12.80;58.20;;;;;;4997080;28;20046;-87
2022/04/21 07:38:46;;;;;;;1.25;0.50;;;12.80;57.90;;;;;;5012280;28;20125;-87
2022/04/21 07:41:13;;;;;;;1.23;0.68;;;12.90;57.70;;;;;;4980600;28;20116;-87
2022/04/21 07:43:42;;;;;;;1.52;0.60;;;13.00;57.60;;;;;;5012667;28;20058;-87
2022/04/21 07:46:10;;;;;;;1.67;0.73;;;13.10;57.40;;;;;;5011620;28;20450;-88
2022/04/21 07:51:23;;;;;;;1.60;0.50;;;13.30;57.00;;;;;;5012771;28;20387;-87
2022/04/21 07:53:50;;;;;;;2.80;0.70;;;13.40;56.80;;;;;;4992959;28;20046;-88
2022/04/21 07:56:17;;;;;;;1.55;0.70;;;13.50;56.50;;;;;;4995239;28;20058;-88
2022/04/21 07:58:44;;;;;;;1.45;0.50;;;13.60;56.50;;;;;;5009746;28;20173;-87
2022/04/21 08:01:12;;;;;;;1.30;0.60;;;13.70;56.40;;;;;;5009531;28;20570;-87
2022/04/21 08:03:41;;;;;;;1.35;0.50;;;13.80;56.00;;;;;;5016776;28;20049;-87
2022/04/21 08:06:08;;;;;;;3.80;0.77;;;13.80;55.60;;;;;;4992251;28;20490;-86
2022/04/21 08:08:40;;;;;;;2.72;0.57;;;13.80;55.40;;;;;;4976336;28;20143;-86
2022/04/21 08:11:07;;;;;;;2.05;0.70;;;13.90;55.40;;;;;;4995659;28;20052;-86
2022/04/21 08:13:35;;;;;;;1.90;0.65;;;14.00;55.20;;;;;;4995661;28;20034;-86
2022/04/21 08:16:02;;;;;;;1.30;0.55;;;14.00;55.10;;;;;;4991409;28;20053;-86
2022/04/21 08:18:29;;;;;;;2.78;0.68;;;14.00;54.90;;;;;;4974207;28;20041;-86
2022/04/21 08:20:58;;;;;;;1.55;0.63;;;14.10;54.80;;;;;;4992972;28;20050;-86
2022/04/21 08:23:42;;;;;;;1.85;0.77;;;14.20;54.80;;;;;;4994862;28;20513;-86
2022/04/21 08:34:46;;;;;;;0.93;0.38;;;14.50;53.80;;;;;;4978797;28;20487;-86
2022/04/21 08:37:15;;;;;;;1.83;0.70;;;14.50;53.70;;;;;;4991984;28;20050;-86
2022/04/21 08:39:45;;;;;;;1.38;0.70;;;14.60;53.50;;;;;;4994691;28;20054;-85
2022/04/21 08:42:15;;;;;;;2.38;0.40;;;14.70;53.40;;;;;;4992646;28;20121;-86
2022/04/21 08:44:44;;;;;;;1.15;0.55;;;14.70;53.00;;;;;;4975851;28;20487;-85
2022/04/21 08:47:14;;;;;;;1.25;0.60;;;14.80;52.90;;;;;;4990216;28;20038;-87
2022/04/21 08:49:46;;;;;;;1.92;0.70;;;14.80;52.90;;;;;;4988652;28;20056;-86
2022/04/21 08:52:15;;;;;;;1.42;0.60;;;14.90;52.60;;;;;;4995073;28;20041;-86
2022/04/21 08:54:42;;;;;;;3.47;0.95;;;15.00;52.40;;;;;;4989851;28;20049;-86
2022/04/21 08:57:10;;;;;;;1.83;0.63;;;15.00;52.20;;;;;;5004267;28;20045;-85
2022/04/21 08:59:37;;;;;;;1.30;0.68;;;15.00;52.10;;;;;;4994852;28;20048;-86
2022/04/21 09:02:06;;;;;;;2.10;0.70;;;15.10;52.00;;;;;;4975528;28;20089;-86
2022/04/21 09:04:33;;;;;;;1.90;0.82;;;15.20;51.80;;;;;;4976615;28;20037;-85
2022/04/21 09:07:18;;;;;;;2.03;0.80;;;15.20;51.50;;;;;;4977693;28;20062;-86
2022/04/21 09:10:01;;;;;;;1.80;0.60;;;15.20;51.40;;;;;;4996008;28;20149;-86
2022/04/21 09:12:28;;;;;;;;;;;15.20;51.10;;;;;;4991932;28;20133;-86
2022/04/21 09:14:57;;;;;;;1.50;0.50;;;15.10;51.20;;;;;;4993835;28;19941;-86
2022/04/21 09:17:24;;;;;;;1.67;0.60;;;15.10;51.60;;;;;;4994364;28;20053;-86
2022/04/21 09:19:59;;;;;;;1.20;0.70;;;15.10;51.00;;;;;;4989158;28;20057;-85
2022/04/21 09:22:32;;;;;;;1.42;0.60;;;15.20;50.70;;;;;;4994861;28;20137;-86
2022/04/21 09:25:00;;;;;;;2.67;0.60;;;15.30;50.50;;;;;;4981275;28;20513;-86
2022/04/21 09:27:45;;;;;;;1.30;0.50;;;15.20;50.30;;;;;;4994882;28;20052;-86
2022/04/21 09:30:13;;;;;;;2.17;0.65;;;15.30;50.20;;;;;;5004247;28;20576;-85
2022/04/21 09:32:53;;;;;;;1.75;0.60;;;15.40;49.70;;;;;;4973758;28;20556;-85
2022/04/21 09:35:22;;;;;;;1.40;0.50;;;15.40;49.70;;;;;;4994984;28;20088;-87
2022/04/21 09:37:54;;;;;;;1.20;0.60;;;15.40;49.70;;;;;;4954809;28;20487;-86
2022/04/21 09:40:26;;;;;;;1.45;0.63;;;15.50;49.70;;;;;;4992065;28;20043;-86
2022/04/21 09:42:58;;;;;;;1.20;0.40;;;15.50;49.40;;;;;;4992306;28;20042;-86
2022/04/21 09:48:28;;;;;;;1.88;0.60;;;15.60;49.10;;;;;;4991461;28;20440;-86
2022/04/21 09:51:07;;;;;;;1.02;0.60;;;15.60;49.00;;;;;;4980362;28;20052;-87
2022/04/21 09:54:00;;;;;;;1.20;0.57;;;15.70;49.00;;;;;;5002450;28;20041;-86
2022/04/21 09:56:37;;;;;;;1.45;0.60;;;15.80;49.30;;;;;;4998589;28;20096;-88
2022/04/21 09:59:08;;;;;;;1.65;0.65;;;15.80;48.70;;;;;;4998981;28;20130;-87
2022/04/21 10:01:38;;;;;;;2.58;0.70;;;15.80;48.60;;;;;;4996082;28;20042;-87
2022/04/21 10:04:06;;;;;;;2.63;0.80;;;15.80;47.90;;;;;;4981170;28;20049;-87
2022/04/21 10:06:37;;;;;;;1.75;0.68;;;15.80;47.80;;;;;;4995339;28;20057;-86
2022/04/21 10:09:05;;;;;;;2.38;1.00;;;15.80;47.80;;;;;;5003096;28;20046;-86
2022/04/21 10:11:32;;;;;;;1.52;0.60;;;15.80;48.20;;;;;;4997672;28;20061;-86
2022/04/21 10:13:59;;;;;;;1.38;0.60;;;15.90;47.70;;;;;;4998783;28;20050;-86
2022/04/21 10:16:28;;;;;;;1.98;0.57;;;16.00;47.50;;;;;;4997994;28;20104;-86
2022/04/21 10:18:57;;;;;;;1.00;0.40;;;16.00;47.40;;;;;;4998198;28;20050;-86
2022/04/21 10:21:49;;;;;;;1.13;0.60;;;16.10;47.40;;;;;;4981351;28;20557;-85
2022/04/21 10:24:24;;;;;;;1.30;0.50;;;16.30;47.10;;;;;;4992008;28;20047;-86
2022/04/21 10:26:52;;;;;;;0.75;0.40;;;16.60;46.80;;;;;;4982048;28;20042;-87
2022/04/21 10:29:25;;;;;;;1.40;0.50;;;16.70;46.60;;;;;;4984096;28;20145;-86
2022/04/21 10:31:56;;;;;;;3.10;0.40;;;16.80;46.30;;;;;;4997045;28;20053;-86
2022/04/21 10:34:32;;;;;;;1.67;0.40;;;16.80;46.30;;;;;;4981359;28;20042;-86
2022/04/21 10:37:20;;;;;;;1.30;0.50;;;16.70;46.40;;;;;;4997176;28;20089;-86
2022/04/21 10:40:10;;;;;;;0.82;0.40;;;16.70;46.40;;;;;;4980656;28;20042;-87
2022/04/21 10:42:53;;;;;;;1.08;0.45;;;16.80;46.00;;;;;;4987009;28;20047;-87
2022/04/21 10:45:38;;;;;;;1.23;0.60;;;16.80;46.00;;;;;;4997307;28;20064;-88
2022/04/21 10:48:12;;;;;;;1.52;0.57;;;16.90;45.70;;;;;;4978178;28;20497;-86
2022/04/21 10:50:40;;;;;;;1.30;0.40;;;16.90;45.90;;;;;;4997449;28;20085;-87
2022/04/21 10:59:06;;;;;;;1.50;0.57;;;17.10;45.50;;;;;;5008877;28;20430;-87
2022/04/21 11:01:36;;;;;;;0.80;0.47;;;17.20;45.50;;;;;;4996421;28;20044;-87
2022/04/21 11:04:05;;;;;;;1.50;0.60;;;17.20;45.40;;;;;;4979556;28;20070;-87
2022/04/21 11:06:40;;;;;;;1.10;0.50;;;17.20;45.40;;;;;;4980416;28;20057;-86
2022/04/21 11:09:08;;;;;;;2.47;0.77;;;17.40;45.00;;;;;;4995142;28;20375;-86
2022/04/21 11:11:49;;;;;;;1.27;0.50;;;17.30;45.00;;;;;;4999848;28;20073;-84
2022/04/21 11:14:37;;;;;;;1.30;0.55;;;17.20;45.10;;;;;;4996473;28;20132;-85
2022/04/21 11:17:06;;;;;;;1.63;0.63;;;17.20;45.10;;;;;;5010337;28;20573;-86
2022/04/21 11:19:53;;;;;;;0.93;0.50;;;17.20;45.20;;;;;;4996864;28;20054;-86
2022/04/21 11:22:39;;;;;;;1.85;0.57;;;17.20;45.20;;;;;;4998773;28;20089;-86
2022/04/21 11:25:07;;;;;;;1.38;0.50;;;17.20;45.00;;;;;;5011770;28;20061;-85
2022/04/21 11:27:41;;;;;;;2.17;0.60;;;17.60;44.90;;;;;;4993712;28;20100;-86
2022/04/21 11:30:13;;;;;;;1.58;0.50;;;18.30;44.20;;;;;;4980361;28;20050;-86
2022/04/21 11:32:53;;;;;;;1.70;0.40;;;18.90;43.30;;;;;;4980399;28;20046;-86
2022/04/21 11:35:22;;;;;;;1.40;0.50;;;19.70;42.10;;;;;;4998975;28;20064;-86
2022/04/21 11:37:59;;;;;;;1.42;0.57;;;20.10;41.60;;;;;;4975280;28;20066;-86
2022/04/21 11:40:31;;;;;;;2.15;0.73;;;20.40;41.20;;;;;;4996579;28;20118;-86
2022/04/21 11:43:02;;;;;;;2.70;0.70;;;20.40;40.80;;;;;;4993203;28;20046;-86
2022/04/21 11:45:35;;;;;;;3.23;0.60;;;20.50;40.70;;;;;;4984392;28;20054;-86
2022/04/21 11:48:13;;;;;;;1.50;0.60;;;20.60;40.50;;;;;;4993948;28;20050;-87
2022/04/21 11:50:46;;;;;;;1.40;0.70;;;20.70;40.50;;;;;;4996221;28;20141;-85
2022/04/21 11:53:21;;;;;;;1.02;0.50;;;20.60;40.40;;;;;;4991883;28;20518;-88
2022/04/21 11:55:49;;;;;;;4.30;0.80;;;20.40;40.60;;;;;;5001763;28;20043;-86
2022/04/21 11:58:38;;;;;;;2.30;0.60;;;20.20;40.70;;;;;;4976956;28;20564;-87
2022/04/21 12:06:46;;;;;;;1.27;0.60;;;20.90;40.40;;;;;;4982495;28;20053;-87
2022/04/21 12:09:21;;;;;;;1.45;0.45;;;20.80;40.50;;;;;;5023977;28;20046;-86
2022/04/21 12:11:54;;;;;;;1.92;0.65;;;20.30;40.90;;;;;;5026920;28;20136;-89
2022/04/21 12:14:22;;;;;;;2.08;0.60;;;19.90;41.40;;;;;;5021223;28;20045;-86
2022/04/21 12:17:02;;;;;;;1.83;0.50;;;19.70;41.70;;;;;;4995939;28;20541;-87
2022/04/21 12:19:40;;;;;;;1.63;0.70;;;19.50;41.90;;;;;;5012273;28;20060;-86
2022/04/21 12:22:19;;;;;;;2.08;0.70;;;19.50;41.80;;;;;;4993176;28;20038;-85
2022/04/21 12:24:51;;;;;;;2.03;0.77;;;19.50;41.80;;;;;;5009162;28;20494;-86
2022/04/21 12:27:23;;;;;;;2.10;0.80;;;19.30;41.80;;;;;;5007367;28;20038;-86
2022/04/21 12:30:11;;;;;;;2.05;0.70;;;19.10;41.90;;;;;;4992828;28;20072;-85
2022/04/21 12:32:46;;;;;;;1.65;0.75;;;18.90;42.10;;;;;;5011068;28;20054;-87
2022/04/21 12:35:14;;;;;;;3.42;0.70;;;18.60;42.40;;;;;;5008627;28;20141;-86
2022/04/21 12:40:51;;;;;;;2.25;0.88;;;18.40;42.80;;;;;;5012914;28;20500;-86
2022/04/21 12:43:23;;;;;;;1.33;0.70;;;18.30;43.00;;;;;;4997655;28;20057;-87
2022/04/21 12:46:02;;;;;;;2.65;0.80;;;18.30;43.00;;;;;;5011908;28;20052;-87
2022/04/21 12:48:29;;;;;;;4.53;1.00;;;18.20;43.20;;;;;;5006171;28;20376;-86
2022/04/21 12:50:59;;;;;;;2.53;0.80;;;18.20;43.30;;;;;;4989674;28;20062;-88
2022/04/21 12:53:31;;;;;;;2.10;1.02;;;18.20;43.40;;;;;;4995499;28;20072;-86
2022/04/21 12:56:11;;;;;;;2.00;0.60;;;18.20;43.40;;;;;;4993820;28;20046;-88
2022/04/21 12:58:38;;;;;;;2.85;0.98;;;18.10;43.50;;;;;;4992118;28;20499;-87
2022/04/21 13:01:08;;;;;;;2.85;1.10;;;18.10;43.60;;;;;;4986193;28;20077;-90
2022/04/21 13:03:38;;;;;;;1.92;0.90;;;18.10;43.70;;;;;;5007487;28;20821;-89
2022/04/21 13:06:05;;;;;;;1.77;0.95;;;18.10;43.80;;;;;;5001674;28;20141;-89
2022/04/21 13:08:32;;;;;;;2.70;1.00;;;18.20;43.80;;;;;;5010561;28;20104;-88
2022/04/21 13:11:02;;;;;;;1.98;1.02;;;18.30;43.60;;;;;;4995685;28;20074;-87
2022/04/21 13:13:29;;;;;;;1.92;1.00;;;18.40;43.50;;;;;;5007185;28;20042;-86
2022/04/21 13:15:57;;;;;;;3.75;1.33;;;18.60;44.10;;;;;;5011590;28;20061;-87
2022/04/21 13:18:24;;;;;;;3.88;1.38;;;18.60;43.40;;;;;;5009901;28;20065;-84
2022/04/21 13:23:37;;;;;;;2.80;0.95;;;18.60;43.30;;;;;;5008783;28;20050;-89
2022/04/21 13:26:04;;;;;;;2.55;0.73;;;18.50;43.20;;;;;;5006764;28;20046;-83
2022/04/21 13:28:51;;;;;;;2.35;0.90;;;18.50;43.40;;;;;;5009003;28;20113;-83
2022/04/21 13:34:09;;;;;;;2.70;1.00;;;18.30;43.50;;;;;;5015005;28;20108;-87
2022/04/21 13:36:39;;;;;;;1.58;0.80;;;18.30;43.50;;;;;;4999030;28;20042;-88
2022/04/21 13:39:11;;;;;;;2.80;0.70;;;18.40;43.50;;;;;;4995869;28;20129;-87
2022/04/21 13:41:42;;;;;;;1.48;0.60;;;18.40;43.60;;;;;;5015103;28;20359;-87
2022/04/21 13:44:10;;;;;;;1.65;0.70;;;18.40;43.50;;;;;;4995137;28;20191;-87
2022/04/21 13:46:57;;;;;;;1.80;0.63;;;18.50;43.70;;;;;;4989374;28;20141;-83
2022/04/21 13:49:25;;;;;;;1.48;0.60;;;18.60;43.60;;;;;;5013141;28;20077;-82
2022/04/21 13:51:54;;;;;;;1.73;0.90;;;18.60;43.50;;;;;;5011380;28;20124;-82
2022/04/21 13:54:22;;;;;;;1.48;0.73;;;18.60;43.60;;;;;;5014569;28;20072;-78
2022/04/21 13:56:49;;;;;;;2.20;0.80;;;18.60;43.60;;;;;;5015356;28;20116;-84
2022/04/21 13:59:17;;;;;;;2.28;0.80;;;18.60;43.70;;;;;;5014561;28;20046;-86
2022/04/21 14:01:45;;;;;;;1.88;0.85;;;18.60;43.70;;;;;;5013360;28;20445;-84
2022/04/21 14:04:12;;;;;;;2.17;0.60;;;18.60;43.80;;;;;;5013234;28;20053;-87
2022/04/21 14:06:39;;;;;;;2.47;0.95;;;18.60;43.80;;;;;;4997731;28;20050;-87
2022/04/21 14:09:09;;;;;;;2.33;1.00;;;18.60;44.00;;;;;;5013301;28;20093;-88